Time;durP1;ratioP1;P1;durP2;ratioP2;P2;SDS_P1;SDS_P2;PMS_P1;PMS_P2;Temp;Humidity;BMP_temperature;BMP_pressure;BME280_temperature;BME280_humidity;BME280_pressure;Samples;Min_cycle;Max_cycle;Signal;HPM_P1;HPM_P2
2023/10/19 00:04:03;;;;;;;1.90;1.08;;;;;;;0.14;89.36;100497.03;10538758;28;20041;-66
2023/10/19 00:09:11;;;;;;;3.10;0.90;;;;;;;0.13;89.29;100495.41;10529694;28;20068;-66
2023/10/19 00:14:17;;;;;;;1.35;1.00;;;;;;;0.25;88.95;100499.06;10576343;22;20056;-69
2023/10/19 00:19:20;;;;;;;3.05;1.10;;;;;;;0.17;89.25;100502.00;10572755;28;20036;-69
2023/10/19 00:24:23;;;;;;;1.77;1.27;;;;;;;0.06;90.00;100499.19;10567347;28;20036;-69
2023/10/19 00:29:32;;;;;;;1.80;1.25;;;;;;;0.13;89.96;100500.78;10564800;28;20036;-68
2023/10/19 00:34:38;;;;;;;2.47;1.45;;;;;;;0.22;89.41;100504.91;10567118;28;20039;-68
2023/10/19 00:39:47;;;;;;;3.83;1.60;;;;;;;0.14;89.52;100499.75;10558622;22;20032;31
2023/10/19 00:44:50;;;;;;;3.60;1.75;;;;;;;0.11;90.13;100502.88;10322820;28;20047;-66
2023/10/19 00:49:54;;;;;;;2.45;1.40;;;;;;;0.18;90.25;100497.47;10353445;28;20042;-66
2023/10/19 00:54:58;;;;;;;4.82;1.55;;;;;;;0.13;90.60;100511.59;10313068;28;20050;-66
2023/10/19 01:00:11;;;;;;;1.50;1.02;;;;;;;0.14;90.92;100507.00;10308374;28;20054;-66
2023/10/19 01:05:13;;;;;;;2.10;1.35;;;;;;;0.01;91.51;100513.31;10282227;29;20054;-66
2023/10/19 01:10:20;;;;;;;0.77;0.70;;;;;;;0.10;91.78;100503.94;10283413;29;20043;-66
2023/10/19 01:31:06;;;;;;;1.45;1.08;;;;;;;0.20;91.93;100507.00;10280385;29;20043;-66
2023/10/19 01:36:14;;;;;;;1.38;0.90;;;;;;;0.18;91.53;100513.66;10279798;28;20047;-66
2023/10/19 01:41:18;;;;;;;1.85;1.00;;;;;;;0.16;92.05;100511.16;10281051;28;20511;-66
2023/10/19 01:46:29;;;;;;;2.17;1.10;;;;;;;0.17;91.89;100506.56;10282172;28;20422;-66
2023/10/19 01:51:33;;;;;;;1.35;1.25;;;;;;;0.26;92.37;100511.50;10280319;29;20039;-66
2023/10/19 01:56:35;;;;;;;1.15;0.80;;;;;;;0.20;92.43;100504.28;10260887;28;20519;-67
2023/10/19 02:01:41;;;;;;;1.60;0.70;;;;;;;0.22;92.69;100506.78;10253052;28;20073;-66
2023/10/19 02:06:46;;;;;;;1.27;0.88;;;;;;;0.27;92.85;100507.78;10280135;28;20421;-66
2023/10/19 02:11:55;;;;;;;1.77;1.27;;;;;;;0.29;92.73;100497.59;10261046;28;20043;-66
2023/10/19 02:17:02;;;;;;;1.95;1.17;;;;;;;0.18;93.20;100503.69;10261872;28;20050;-66
2023/10/19 02:22:08;;;;;;;1.58;1.08;;;;;;;0.25;93.52;100507.16;10280399;28;20554;-66
2023/10/19 02:27:10;;;;;;;1.67;1.30;;;;;;;0.32;93.29;100501.72;10281141;28;20419;-67
2023/10/19 02:32:12;;;;;;;2.60;1.23;;;;;;;0.38;93.00;100508.13;10280950;28;20530;-67
2023/10/19 02:37:16;;;;;;;4.05;1.42;;;;;;;0.37;92.86;100511.88;10298956;28;20030;-66
2023/10/19 02:42:22;;;;;;;1.60;1.05;;;;;;;0.38;93.57;100510.84;10295416;28;20069;-66
2023/10/19 02:47:26;;;;;;;2.40;1.02;;;;;;;0.40;94.07;100511.44;10293481;28;20046;-66
2023/10/19 02:52:30;;;;;;;2.05;1.40;;;;;;;0.42;93.79;100510.16;10282152;28;20039;-65
2023/10/19 02:57:34;;;;;;;1.75;1.30;;;;;;;0.46;93.55;100515.97;10287122;28;20043;-66
2023/10/19 03:02:36;;;;;;;2.28;1.50;;;;;;;0.44;94.44;100523.44;10290256;28;20046;-66
2023/10/19 03:07:39;;;;;;;2.75;1.60;;;;;;;0.39;94.45;100517.88;10279077;28;20031;-66
2023/10/19 03:12:43;;;;;;;3.60;2.10;;;;;;;0.54;94.36;100515.72;10284343;28;20054;-66
2023/10/19 03:17:45;;;;;;;4.38;1.60;;;;;;;0.52;94.22;100520.47;10295353;28;20035;-66
2023/10/19 03:22:48;;;;;;;1.90;1.30;;;;;;;0.47;94.67;100514.91;10285486;28;20082;-66
2023/10/19 03:27:51;;;;;;;2.17;1.50;;;;;;;0.49;94.78;100527.13;10289739;28;20061;-66
2023/10/19 03:32:53;;;;;;;2.72;1.77;;;;;;;0.47;95.15;100528.41;10280334;28;20519;-66
2023/10/19 03:38:01;;;;;;;2.67;1.65;;;;;;;0.44;95.59;100531.53;10291972;28;20035;-67
2023/10/19 03:43:17;;;;;;;3.42;1.25;;;;;;;0.38;95.24;100529.72;10278064;28;20051;-66
2023/10/19 03:48:26;;;;;;;1.80;1.17;;;;;;;0.35;95.89;100541.78;10278476;28;20066;-67
2023/10/19 03:53:32;;;;;;;1.83;1.55;;;;;;;0.45;95.97;100542.13;10280343;28;20035;-67
2023/10/19 03:58:35;;;;;;;3.47;1.92;;;;;;;0.50;95.88;100545.00;10273686;28;20035;-66
2023/10/19 04:03:39;;;;;;;1.77;1.63;;;;;;;0.53;96.19;100549.97;10281916;28;20043;-66
2023/10/19 04:08:50;;;;;;;3.53;1.65;;;;;;;0.57;96.19;100553.91;10281267;28;20062;-67
2023/10/19 04:13:55;;;;;;;3.30;1.70;;;;;;;0.58;96.46;100547.44;10268847;28;20135;-66
2023/10/19 04:18:58;;;;;;;1.92;1.13;;;;;;;0.60;96.40;100552.63;10302937;28;20039;-66
2023/10/19 04:24:00;;;;;;;3.45;1.88;;;;;;;0.58;96.57;100562.81;10284405;28;20047;-67
2023/10/19 04:29:18;;;;;;;4.35;1.55;;;;;;;0.58;96.76;100554.72;10321917;28;20418;-67
2023/10/19 04:34:21;;;;;;;2.35;1.90;;;;;;;0.55;96.96;100563.25;10294827;28;20054;-67
2023/10/19 04:39:25;;;;;;;1.88;1.42;;;;;;;0.44;97.49;100569.34;10275460;28;20039;-67
2023/10/19 04:44:27;;;;;;;1.38;1.27;;;;;;;0.53;97.11;100570.75;10289807;28;20054;-66
2023/10/19 04:49:29;;;;;;;2.45;1.25;;;;;;;0.52;97.49;100574.47;10274743;28;20070;-67
2023/10/19 04:54:31;;;;;;;1.60;1.38;;;;;;;0.46;97.74;100569.94;10280770;28;20523;-67
2023/10/19 04:59:33;;;;;;;1.48;1.30;;;;;;;0.49;98.15;100574.91;10290405;28;20035;-66
2023/10/19 05:04:36;;;;;;;2.97;1.83;;;;;;;0.57;97.67;100588.16;10285539;28;20043;-66
2023/10/19 05:09:39;;;;;;;2.75;1.75;;;;;;;0.54;97.83;100586.72;10310530;28;20050;-67
2023/10/19 05:14:42;;;;;;;2.97;1.50;;;;;;;0.59;97.69;100596.88;10289901;28;20051;-67
2023/10/19 05:19:45;;;;;;;4.07;2.00;;;;;;;0.60;98.29;100601.22;10278117;28;20435;-66
2023/10/19 05:24:47;;;;;;;2.75;1.23;;;;;;;0.58;97.75;100596.03;10282164;29;20042;-66
2023/10/19 05:29:51;;;;;;;6.25;2.03;;;;;;;0.55;97.35;100607.28;10315636;23;20056;-67
2023/10/19 05:34:53;;;;;;;2.85;1.40;;;;;;;0.52;98.20;100599.63;10478232;28;20460;-67
2023/10/19 05:39:56;;;;;;;5.40;1.83;;;;;;;0.65;98.20;100597.88;10484524;28;20041;-67
2023/10/19 05:44:59;;;;;;;6.68;2.45;;;;;;;0.69;98.67;100607.19;10487509;22;20507;-65
2023/10/19 05:50:02;;;;;;;5.97;2.15;;;;;;;0.73;98.84;100603.84;10437303;28;20049;-63
2023/10/19 05:55:05;;;;;;;4.70;2.45;;;;;;;0.84;98.85;100616.63;10442962;28;20398;-64
2023/10/19 06:00:15;;;;;;;3.20;1.83;;;;;;;0.89;97.73;100608.72;10474918;22;20059;-67
2023/10/19 06:05:18;;;;;;;6.60;2.40;;;;;;;1.02;98.07;100609.66;10516098;28;20052;-67
2023/10/19 06:10:22;;;;;;;4.95;2.10;;;;;;;1.13;97.17;100620.59;10525727;28;20043;-67
2023/10/19 06:15:24;;;;;;;4.47;1.80;;;;;;;1.13;96.20;100623.31;10524012;28;20051;-67
2023/10/19 06:20:26;;;;;;;2.38;1.80;;;;;;;1.14;95.83;100640.34;10526241;28;20039;-67
2023/10/19 06:25:29;;;;;;;3.13;1.90;;;;;;;1.23;95.78;100640.91;10522682;28;20052;-67
2023/10/19 06:30:31;;;;;;;5.70;2.22;;;;;;;1.38;94.68;100647.63;10528052;28;20063;-67
2023/10/19 06:35:33;;;;;;;2.20;1.80;;;;;;;1.36;94.55;100657.84;10533520;28;20063;-67
2023/10/19 06:40:36;;;;;;;3.03;1.80;;;;;;;1.34;93.90;100657.22;10534363;28;20051;-67
2023/10/19 06:45:40;;;;;;;5.53;2.40;;;;;;;1.45;93.42;100664.63;10532451;28;20503;-67
2023/10/19 06:50:42;;;;;;;3.83;1.80;;;;;;;1.33;93.13;100663.69;10533739;28;20123;-67
2023/10/19 06:55:46;;;;;;;5.63;2.10;;;;;;;1.35;92.23;100669.69;10533061;28;20048;-66
2023/10/19 07:00:56;;;;;;;3.38;2.10;;;;;;;1.35;92.01;100666.16;10523412;28;20053;-66
2023/10/19 07:05:59;;;;;;;4.32;2.40;;;;;;;1.47;91.91;100676.06;10471724;28;20049;-66
2023/10/19 07:11:01;;;;;;;6.22;2.55;;;;;;;1.46;91.10;100677.09;10491468;28;20040;-66
2023/10/19 07:16:04;;;;;;;3.95;2.72;;;;;;;1.49;90.69;100676.66;10470898;28;20032;-66
2023/10/19 07:21:09;;;;;;;5.40;2.67;;;;;;;1.48;90.97;100682.28;10486260;28;20416;-66
2023/10/19 07:26:14;;;;;;;6.47;2.22;;;;;;;1.55;90.80;100687.63;10462496;28;20424;-66
2023/10/19 07:31:16;;;;;;;4.10;2.13;;;;;;;1.61;90.46;100690.31;10472956;28;20386;-67
2023/10/19 07:36:19;;;;;;;3.45;1.98;;;;;;;1.87;90.25;100685.69;10489957;28;20056;-66
2023/10/19 07:41:22;;;;;;;3.53;2.00;;;;;;;2.23;89.56;100696.56;10488219;28;20047;-67
2023/10/19 07:46:25;;;;;;;5.45;2.15;;;;;;;3.03;86.23;100696.41;10496442;28;20040;-66
2023/10/19 07:51:29;;;;;;;3.70;2.08;;;;;;;3.47;83.50;100694.28;10488496;28;20124;-66
2023/10/19 07:56:33;;;;;;;3.42;2.00;;;;;;;3.46;82.76;100695.34;10487176;28;20051;-66
2023/10/19 08:01:36;;;;;;;3.20;2.42;;;;;;;3.46;81.29;100706.19;10493634;28;20570;-66
2023/10/19 08:06:38;;;;;;;3.53;2.13;;;;;;;2.76;84.46;100714.06;10482278;28;20037;-66
2023/10/19 08:11:42;;;;;;;2.40;1.70;;;;;;;2.99;85.56;100708.78;10489219;28;20504;-66
2023/10/19 08:16:44;;;;;;;2.38;1.63;;;;;;;2.86;84.10;100719.78;10471245;28;20040;-66
2023/10/19 08:21:48;;;;;;;2.65;1.60;;;;;;;2.96;83.49;100718.19;10515940;28;20044;-66
2023/10/19 08:26:51;;;;;;;1.45;1.30;;;;;;;2.73;84.37;100721.59;10468300;28;20041;-66
2023/10/19 08:31:53;;;;;;;2.20;1.20;;;;;;;2.60;85.56;100713.66;10451859;28;20033;-66
2023/10/19 08:36:56;;;;;;;2.20;1.60;;;;;;;2.70;85.55;100719.34;10481737;28;20574;-66
2023/10/19 08:41:59;;;;;;;1.35;0.80;;;;;;;2.47;86.08;100735.47;10488436;28;20052;-66
2023/10/19 08:47:01;;;;;;;1.58;1.35;;;;;;;2.30;87.27;100732.53;10508290;28;20428;-66
2023/10/19 08:52:04;;;;;;;1.02;0.90;;;;;;;2.26;88.74;100735.91;10500817;28;20025;-67
2023/10/19 08:57:06;;;;;;;2.35;0.98;;;;;;;2.02;89.29;100760.06;10461646;28;20049;-67
2023/10/19 09:02:09;;;;;;;2.08;0.88;;;;;;;2.08;90.11;100737.53;10520227;28;20052;-67
2023/10/19 09:07:11;;;;;;;1.20;1.10;;;;;;;2.48;89.08;100739.00;10478158;28;20037;-66
2023/10/19 09:12:13;;;;;;;2.05;0.98;;;;;;;2.55;87.92;100737.03;10463975;28;20043;-66
2023/10/19 09:17:17;;;;;;;1.45;1.05;;;;;;;2.81;86.87;100747.56;10486388;28;20045;-66
2023/10/19 09:22:22;;;;;;;1.20;0.80;;;;;;;2.69;86.18;100754.78;10487195;28;20028;-66
2023/10/19 09:27:25;;;;;;;0.90;0.70;;;;;;;2.78;85.46;100748.03;10485397;28;20040;-66
2023/10/19 09:32:29;;;;;;;1.13;0.80;;;;;;;2.91;83.89;100752.44;10479719;28;20036;-66
2023/10/19 09:37:31;;;;;;;1.35;0.90;;;;;;;2.95;83.98;100754.47;10480917;28;20037;-66
2023/10/19 09:42:33;;;;;;;0.95;0.80;;;;;;;2.97;83.70;100746.13;10461473;28;20104;-66
2023/10/19 09:47:39;;;;;;;1.08;0.80;;;;;;;3.20;83.29;100751.63;10478339;28;20039;-67
2023/10/19 09:52:41;;;;;;;1.45;0.90;;;;;;;3.23;83.69;100751.16;10463369;28;20488;-66
2023/10/19 09:57:49;;;;;;;1.35;1.13;;;;;;;3.30;83.07;100759.22;10472728;28;20048;-66
2023/10/19 10:02:52;;;;;;;1.48;1.20;;;;;;;3.21;81.88;100763.31;10499342;28;20056;-66
2023/10/19 10:08:16;;;;;;;1.85;1.00;;;;;;;3.21;82.24;100766.84;10486258;28;20033;-67
2023/10/19 10:13:24;;;;;;;1.90;1.10;;;;;;;3.37;82.38;100757.25;10519097;28;20036;-66
2023/10/19 10:18:30;;;;;;;2.25;0.88;;;;;;;3.48;79.37;100758.34;10514888;28;20043;-67
2023/10/19 10:23:32;;;;;;;0.70;0.70;;;;;;;3.51;80.39;100771.44;10497864;28;20055;-67
2023/10/19 10:28:35;;;;;;;2.08;0.80;;;;;;;3.45;80.06;100770.47;10504395;28;20518;-68
2023/10/19 10:33:46;;;;;;;2.90;0.70;;;;;;;3.46;80.48;100772.13;10488778;28;20037;-66
2023/10/19 10:38:51;;;;;;;1.55;0.88;;;;;;;3.42;78.95;100787.22;10492181;28;20077;-66
2023/10/19 10:43:55;;;;;;;1.88;0.90;;;;;;;3.24;79.91;100785.38;10492947;28;20044;-66
2023/10/19 10:48:58;;;;;;;1.10;0.88;;;;;;;3.47;80.04;100784.66;10510331;28;20037;-66
2023/10/19 10:54:01;;;;;;;0.68;0.68;;;;;;;3.43;80.18;100778.00;10524813;28;20044;-66
2023/10/19 10:59:12;;;;;;;0.68;0.68;;;;;;;3.32;81.35;100778.81;10485493;28;20032;-65
2023/10/19 11:04:16;;;;;;;1.05;1.00;;;;;;;3.35;80.88;100785.66;10490726;28;20053;-66
2023/10/19 11:09:18;;;;;;;0.50;0.50;;;;;;;3.35;81.98;100780.22;10506266;28;20538;-66
2023/10/19 11:14:24;;;;;;;0.80;0.70;;;;;;;3.43;81.26;100786.16;10491399;28;20428;-66
2023/10/19 11:19:39;;;;;;;4.30;1.75;;;;;;;3.53;82.26;100777.47;10474398;28;20036;-66
2023/10/19 11:24:41;;;;;;;1.85;0.88;;;;;;;4.31;81.83;100781.81;10528531;28;20063;-66
2023/10/19 11:29:57;;;;;;;1.80;0.77;;;;;;;4.55;80.30;100788.91;10526627;28;20040;-66
2023/10/19 11:34:59;;;;;;;2.05;0.80;;;;;;;3.93;79.67;100783.09;10532215;28;20048;-66
2023/10/19 11:40:02;;;;;;;1.75;1.00;;;;;;;3.57;80.88;100784.06;10531872;28;20036;-66
2023/10/19 11:45:06;;;;;;;0.75;0.73;;;;;;;3.90;78.67;100784.38;10504200;28;20043;-67
2023/10/19 11:50:12;;;;;;;3.03;1.08;;;;;;;3.65;80.03;100789.19;10485493;28;20037;-68
2023/10/19 11:55:16;;;;;;;3.15;1.00;;;;;;;3.71;79.22;100790.97;10507318;28;20039;-65
2023/10/19 12:00:54;;;;;;;1.48;0.63;;;;;;;3.83;80.04;100793.72;10524473;28;20048;-65
2023/10/19 12:05:47;;;;;;;2.08;0.60;;;;;;;3.77;79.29;100809.03;10483306;28;20448;-65
2023/10/19 12:10:51;;;;;;;1.40;0.50;;;;;;;3.72;80.78;100803.47;10495770;28;20044;-64
2023/10/19 12:15:54;;;;;;;0.95;0.50;;;;;;;3.54;81.46;100801.66;10468008;28;20048;-65
2023/10/19 12:20:59;;;;;;;1.55;0.70;;;;;;;3.84;82.16;100806.22;10487829;28;20037;-65
2023/10/19 12:26:04;;;;;;;1.33;0.60;;;;;;;3.42;82.49;100813.50;10478463;28;20464;-66
2023/10/19 12:31:10;;;;;;;0.95;0.50;;;;;;;3.29;84.23;100826.19;10483645;28;20439;-65
2023/10/19 12:41:24;;;;;;;1.48;0.73;;;;;;;3.40;85.42;100815.63;10485427;28;20522;-66
2023/10/19 12:46:29;;;;;;;0.77;0.60;;;;;;;2.97;88.35;100813.88;10486352;28;20040;-65
2023/10/19 12:51:31;;;;;;;1.85;0.70;;;;;;;2.80;87.62;100820.97;10486997;28;20058;-65
2023/10/19 12:56:35;;;;;;;0.60;0.52;;;;;;;3.02;87.62;100817.56;10481290;28;20041;-64
2023/10/19 13:01:37;;;;;;;1.02;0.70;;;;;;;2.88;84.42;100818.78;10487730;28;20044;-64
2023/10/19 13:06:40;;;;;;;0.50;0.50;;;;;;;3.08;82.89;100823.13;10540190;28;20044;-64
2023/10/19 13:11:43;;;;;;;0.63;0.60;;;;;;;2.88;82.27;100832.31;10502580;28;20029;-64
2023/10/19 13:16:49;;;;;;;0.63;0.40;;;;;;;2.96;82.61;100832.03;10525429;28;20040;-64
2023/10/19 13:21:54;;;;;;;0.65;0.60;;;;;;;2.62;82.66;100851.59;10523773;28;20044;-64
2023/10/19 13:26:56;;;;;;;0.60;0.60;;;;;;;2.70;82.45;100826.91;10510027;28;20036;-64
2023/10/19 13:31:58;;;;;;;0.88;0.57;;;;;;;2.84;82.86;100843.84;10529729;28;20439;-64
2023/10/19 13:37:01;;;;;;;1.67;0.70;;;;;;;2.46;84.53;100849.44;10487635;28;20543;-66
2023/10/19 13:42:05;;;;;;;2.33;0.70;;;;;;;2.56;85.19;100838.91;10510589;28;20037;-64
2023/10/19 13:47:26;;;;;;;1.60;0.63;;;;;;;2.60;85.26;100845.53;10522985;28;20035;-65
2023/10/19 13:52:28;;;;;;;0.65;0.65;;;;;;;2.58;84.73;100851.19;10512769;28;20284;-65
2023/10/19 13:57:31;;;;;;;2.33;0.50;;;;;;;2.58;85.08;100853.06;10521857;28;20052;-65
2023/10/19 14:02:33;;;;;;;1.85;0.80;;;;;;;2.56;85.57;100858.72;10518075;28;20051;-65
2023/10/19 14:07:36;;;;;;;0.90;0.68;;;;;;;2.53;85.57;100867.28;10511066;28;20415;-65
2023/10/19 14:12:42;;;;;;;0.77;0.60;;;;;;;2.53;85.87;100882.72;10484679;28;20388;-65
2023/10/19 14:17:46;;;;;;;0.60;0.60;;;;;;;2.47;86.88;100887.16;10484567;28;20041;-65
2023/10/19 14:22:55;;;;;;;1.83;0.70;;;;;;;2.57;86.09;100887.44;10493005;28;20033;-65
2023/10/19 14:27:59;;;;;;;1.63;0.82;;;;;;;2.59;86.71;100888.06;10521557;28;20040;-67
2023/10/19 14:33:02;;;;;;;1.20;0.88;;;;;;;2.64;85.58;100898.25;10513908;28;20048;-65
2023/10/19 14:38:06;;;;;;;2.00;0.82;;;;;;;2.65;84.26;100921.56;10512992;28;20040;-66
2023/10/19 14:43:09;;;;;;;0.82;0.50;;;;;;;2.62;83.34;100901.19;10518552;28;20418;-66
2023/10/19 14:48:12;;;;;;;0.98;0.50;;;;;;;2.59;83.07;100917.84;10523173;28;20032;-66
2023/10/19 14:53:14;;;;;;;1.80;0.70;;;;;;;2.61;83.09;100923.06;10527441;28;20040;-66
2023/10/19 14:58:17;;;;;;;1.10;0.60;;;;;;;2.56;82.86;100931.00;10517528;28;20040;-66
2023/10/19 15:03:20;;;;;;;1.70;0.80;;;;;;;2.56;83.05;100922.88;10501717;28;20140;-66
2023/10/19 15:08:28;;;;;;;1.58;0.38;;;;;;;2.57;83.90;100940.81;10515680;22;20527;-66
2023/10/19 15:13:31;;;;;;;0.50;0.50;;;;;;;2.34;84.31;100936.81;10508826;28;20033;-66
2023/10/19 15:18:36;;;;;;;2.15;0.77;;;;;;;2.35;84.86;100934.94;10505064;28;20056;-67
2023/10/19 15:23:38;;;;;;;3.00;1.00;;;;;;;2.40;84.83;100938.63;10538389;22;20056;-66
2023/10/19 15:28:41;;;;;;;0.82;0.70;;;;;;;2.42;84.60;100939.25;10530810;28;20051;-66
2023/10/19 15:33:43;;;;;;;1.30;0.80;;;;;;;2.45;85.74;100959.66;10531252;28;20037;-66
2023/10/19 15:38:45;;;;;;;2.85;0.70;;;;;;;2.26;87.43;100979.59;10537371;22;20417;-68
2023/10/19 15:43:47;;;;;;;1.98;0.90;;;;;;;1.88;90.55;100966.88;10512785;28;20036;-68
2023/10/19 15:48:50;;;;;;;0.88;0.88;;;;;;;1.71;91.94;100968.41;10521234;28;20441;-68
2023/10/19 15:53:52;;;;;;;1.17;0.90;;;;;;;1.63;93.38;100987.59;10523808;22;20060;-72
2023/10/19 15:58:56;;;;;;;1.48;0.98;;;;;;;1.37;95.11;100991.22;10531112;28;20127;-73
2023/10/19 16:03:58;;;;;;;2.55;1.02;;;;;;;1.22;95.64;100990.66;10540229;28;20047;-71
2023/10/19 16:09:00;;;;;;;2.78;1.13;;;;;;;1.27;96.57;100990.84;10548287;22;20584;-67
2023/10/19 16:14:04;;;;;;;2.00;1.08;;;;;;;1.36;97.58;100993.06;10500759;28;20067;-66
2023/10/19 16:19:07;;;;;;;2.80;1.55;;;;;;;1.50;97.18;101002.00;10526414;28;20040;-67
2023/10/19 16:24:11;;;;;;;3.55;1.10;;;;;;;1.05;98.45;101012.72;10492540;28;20083;-67
2023/10/19 16:29:16;;;;;;;1.00;0.60;;;;;;;0.57;98.92;101012.09;10525425;28;20411;-67
2023/10/19 16:34:19;;;;;;;2.92;0.60;;;;;;;0.52;100.00;101022.66;10528320;28;20044;-66
2023/10/19 16:39:21;;;;;;;1.13;0.60;;;;;;;0.52;100.00;101007.31;10529568;22;20045;-64
2023/10/19 16:44:25;;;;;;;2.13;0.68;;;;;;;0.56;100.00;101000.44;10511065;28;20040;-64
2023/10/19 16:49:27;;;;;;;1.13;0.60;;;;;;;0.65;100.00;101009.16;10528919;28;20037;-65
2023/10/19 16:54:29;;;;;;;1.38;0.60;;;;;;;0.78;100.00;101017.28;10499217;22;20063;-66
2023/10/19 16:59:31;;;;;;;1.05;0.60;;;;;;;0.90;100.00;101021.03;10468774;28;20037;-67
2023/10/19 17:04:35;;;;;;;2.03;0.77;;;;;;;1.00;99.35;101027.88;10420530;28;20119;-67
2023/10/19 17:09:37;;;;;;;1.63;0.80;;;;;;;1.15;99.31;101026.59;10518627;23;20079;-73
2023/10/19 17:14:41;;;;;;;1.50;0.70;;;;;;;1.18;99.38;101017.25;10528606;28;20040;-73
2023/10/19 17:19:45;;;;;;;3.53;0.98;;;;;;;1.20;99.59;101028.66;10522811;28;20044;-71
2023/10/19 17:24:48;;;;;;;1.98;0.88;;;;;;;1.27;99.48;101026.81;10502856;28;20051;-72
2023/10/19 17:29:50;;;;;;;2.30;0.90;;;;;;;1.31;99.75;101033.44;10519060;28;20040;-72
2023/10/19 17:34:52;;;;;;;2.92;1.40;;;;;;;1.43;99.72;101037.19;10513926;28;20056;-75
2023/10/19 17:39:55;;;;;;;2.70;1.33;;;;;;;1.51;99.75;101039.63;10520468;28;20037;-76
2023/10/19 17:44:57;;;;;;;4.53;1.27;;;;;;;1.65;99.64;101039.63;10534189;22;20849;-67
2023/10/19 17:49:59;;;;;;;3.58;1.00;;;;;;;1.64;99.05;101055.00;10504727;28;20042;-69
2023/10/19 17:55:04;;;;;;;1.60;1.00;;;;;;;1.70;96.79;101053.31;10503430;28;20135;-69
2023/10/19 18:00:11;;;;;;;3.30;1.10;;;;;;;1.76;95.20;101066.03;10540599;22;20055;-66
2023/10/19 18:05:14;;;;;;;4.30;1.30;;;;;;;1.90;93.88;101070.31;10553449;28;20431;-65
2023/10/19 18:10:18;;;;;;;2.90;1.30;;;;;;;1.91;91.89;101071.16;10535855;28;20384;-65
2023/10/19 18:15:21;;;;;;;3.30;0.85;;;;;;;2.03;90.74;101082.97;10529058;28;20520;-65
2023/10/19 18:20:24;;;;;;;2.63;1.40;;;;;;;2.04;88.90;101079.22;10532836;28;20036;-65
2023/10/19 18:25:30;;;;;;;1.27;0.73;;;;;;;2.09;86.89;101085.69;10538234;28;20050;-66
2023/10/19 18:30:32;;;;;;;2.45;1.25;;;;;;;2.27;86.28;101095.81;10531073;22;20048;-69
2023/10/19 18:35:36;;;;;;;1.73;0.63;;;;;;;2.17;85.09;101105.41;10533567;28;20084;-70
2023/10/19 18:40:40;;;;;;;1.33;1.13;;;;;;;2.14;85.99;101116.69;10534924;28;20029;-71
2023/10/19 18:45:43;;;;;;;4.55;0.82;;;;;;;2.08;85.50;101116.50;10546233;22;20578;-64
2023/10/19 18:51:04;;;;;;;2.80;0.90;;;;;;;2.03;85.63;101116.28;10537094;28;20090;-63
2023/10/19 18:56:06;;;;;;;3.15;0.57;;;;;;;2.09;85.52;101122.75;10524854;28;20037;-64
2023/10/19 19:01:09;;;;;;;0.77;0.70;;;;;;;2.14;85.03;101124.81;10535655;22;20056;-70
2023/10/19 19:06:11;;;;;;;5.38;1.17;;;;;;;2.07;84.16;101119.38;10525722;28;20554;-70
2023/10/19 19:11:16;;;;;;;4.15;0.90;;;;;;;2.10;84.15;101130.66;10503797;28;20048;-71
2023/10/19 19:16:18;;;;;;;2.85;0.63;;;;;;;2.06;84.44;101137.50;10549280;23;20056;-70
2023/10/19 19:21:21;;;;;;;4.38;0.82;;;;;;;2.08;84.42;101134.59;10565817;28;20457;-71
2023/10/19 19:26:24;;;;;;;4.13;1.10;;;;;;;2.07;83.71;101141.88;10550332;28;20040;-70
2023/10/19 19:31:27;;;;;;;2.08;0.70;;;;;;;2.05;83.65;101152.09;10595438;22;20055;-71
2023/10/19 19:36:31;;;;;;;3.08;0.52;;;;;;;2.05;83.37;101154.78;10574067;28;20040;-71
2023/10/19 19:41:34;;;;;;;1.88;0.60;;;;;;;1.96;82.80;101158.78;10538833;28;20556;-70
2023/10/19 19:46:36;;;;;;;1.20;0.57;;;;;;;1.84;84.16;101162.34;10571196;22;20534;-65
2023/10/19 19:51:39;;;;;;;1.55;0.57;;;;;;;1.96;83.79;101172.31;10528480;28;20063;-66
2023/10/19 19:56:41;;;;;;;4.30;0.82;;;;;;;1.97;83.50;101165.88;10524345;28;20045;-65
2023/10/19 20:01:46;;;;;;;1.45;0.80;;;;;;;1.97;83.81;101171.28;10524941;22;20056;-70
2023/10/19 20:06:49;;;;;;;2.17;0.77;;;;;;;2.03;83.06;101175.00;10516620;28;20048;-70
2023/10/19 20:11:51;;;;;;;1.85;0.85;;;;;;;1.95;83.23;101173.38;10514606;28;20037;-72
2023/10/19 20:16:53;;;;;;;1.25;0.75;;;;;;;2.01;81.80;101190.63;10521638;22;20052;-63
2023/10/19 20:21:56;;;;;;;1.73;0.70;;;;;;;2.05;79.97;101192.69;10515034;28;20052;-65
2023/10/19 20:26:58;;;;;;;2.50;0.70;;;;;;;1.99;79.46;101188.13;10526154;28;20426;-65
2023/10/19 20:32:00;;;;;;;1.38;0.60;;;;;;;1.98;79.61;101189.19;10526894;28;20048;-66
2023/10/19 20:37:04;;;;;;;1.17;0.32;;;;;;;2.01;79.03;101199.56;10528982;28;20051;-67
2023/10/19 20:42:08;;;;;;;1.33;0.45;;;;;;;2.01;78.57;101194.16;10539277;22;20056;-69
2023/10/19 20:47:11;;;;;;;2.40;0.30;;;;;;;1.94;78.52;101201.47;10515560;28;20079;-70
2023/10/19 20:52:13;;;;;;;2.17;0.47;;;;;;;1.90;77.77;101202.91;10524833;28;20067;-69
2023/10/19 20:57:16;;;;;;;2.67;0.63;;;;;;;1.87;78.65;101203.34;10528174;28;20071;-69
2023/10/19 21:02:18;;;;;;;3.63;0.50;;;;;;;1.84;78.68;101205.63;10491902;28;20043;-70
2023/10/19 21:07:23;;;;;;;2.08;0.50;;;;;;;1.89;79.10;101214.78;10481358;28;20037;-70
2023/10/19 21:12:26;;;;;;;4.57;0.63;;;;;;;1.86;79.72;101215.22;10466397;28;20045;-70
2023/10/19 21:17:30;;;;;;;1.05;0.50;;;;;;;1.77;78.83;101209.19;10479513;28;20036;-70
2023/10/19 21:22:33;;;;;;;1.00;0.40;;;;;;;1.74;79.66;101222.31;10455842;28;20060;-71
2023/10/19 21:27:36;;;;;;;1.65;0.88;;;;;;;1.66;79.53;101222.50;10484427;28;20041;-70
2023/10/19 21:32:40;;;;;;;2.20;0.57;;;;;;;1.62;78.81;101227.50;10485207;28;20033;-70
2023/10/19 21:37:43;;;;;;;2.55;0.47;;;;;;;1.59;79.05;101227.94;10484456;28;20045;-70
2023/10/19 21:42:45;;;;;;;1.60;0.35;;;;;;;1.51;79.91;101223.53;10485495;28;20052;-72
2023/10/19 21:47:48;;;;;;;0.30;0.20;;;;;;;1.47;79.15;101227.72;10477325;28;20127;-69
2023/10/19 21:52:51;;;;;;;1.75;0.65;;;;;;;1.46;79.67;101225.22;10482038;28;20045;-68
2023/10/19 21:57:53;;;;;;;1.08;0.38;;;;;;;1.46;79.31;101230.63;10506559;22;20067;-67
2023/10/19 22:02:56;;;;;;;3.22;0.40;;;;;;;1.42;79.38;101227.50;10490733;28;20033;-67
2023/10/19 22:07:58;;;;;;;1.85;0.50;;;;;;;1.48;79.27;101228.53;10495992;28;20040;-67
2023/10/19 22:13:01;;;;;;;1.65;0.50;;;;;;;1.45;78.90;101224.38;10525563;28;20041;-67
2023/10/19 22:18:03;;;;;;;2.97;0.50;;;;;;;1.46;79.03;101230.63;10521858;28;20047;-67
2023/10/19 22:23:10;;;;;;;1.60;0.47;;;;;;;1.39;79.05;101235.16;10521698;28;20507;-69
2023/10/19 22:28:14;;;;;;;1.20;0.40;;;;;;;1.46;79.75;101234.16;10468144;28;20038;-66
2023/10/19 22:33:17;;;;;;;1.20;0.50;;;;;;;1.48;78.99;101240.19;10474325;28;20036;-66
2023/10/19 22:38:19;;;;;;;0.45;0.13;;;;;;;1.48;79.43;101233.94;10485621;22;20056;-72
2023/10/19 22:43:22;;;;;;;1.58;0.40;;;;;;;1.44;79.65;101227.28;10544054;28;20043;-73
2023/10/19 22:48:25;;;;;;;1.65;0.40;;;;;;;1.45;79.36;101232.50;10548104;28;20037;-72
2023/10/19 22:53:27;;;;;;;0.52;0.30;;;;;;;1.47;79.90;101225.00;10564590;22;20036;-69
2023/10/19 22:58:30;;;;;;;1.00;0.80;;;;;;;1.44;79.69;101222.72;10435303;28;20063;-69
2023/10/19 23:03:32;;;;;;;1.20;0.40;;;;;;;1.47;79.65;101222.31;10427902;28;20042;-69
2023/10/19 23:08:43;;;;;;;1.00;0.60;;;;;;;1.48;79.81;101234.78;10392369;28;20041;-69
2023/10/19 23:13:48;;;;;;;0.95;0.30;;;;;;;1.45;81.51;101227.09;10475151;28;20041;-69
2023/10/19 23:18:52;;;;;;;3.15;0.30;;;;;;;1.31;84.03;101233.50;10452024;28;20041;-69
2023/10/19 23:23:54;;;;;;;3.28;0.50;;;;;;;1.26;85.14;101236.00;10441740;22;20057;-70
2023/10/19 23:29:01;;;;;;;2.25;0.70;;;;;;;1.19;85.26;101233.28;10464808;28;20045;-71
2023/10/19 23:34:04;;;;;;;0.73;0.40;;;;;;;1.28;86.00;101233.94;10491505;28;20033;-71
2023/10/19 23:39:07;;;;;;;0.98;0.40;;;;;;;1.23;86.11;101239.13;10489960;28;20041;-70
2023/10/19 23:44:09;;;;;;;2.03;0.30;;;;;;;1.26;86.78;101237.88;10463758;28;20037;-70
2023/10/19 23:49:12;;;;;;;1.17;0.50;;;;;;;1.28;87.12;101243.91;10483389;28;20041;-70
2023/10/19 23:54:16;;;;;;;1.70;0.45;;;;;;;1.23;88.22;101263.47;10493101;22;20713;-69